Time;durP1;ratioP1;P1;durP2;ratioP2;P2;SDS_P1;SDS_P2;PMS_P1;PMS_P2;Temp;Humidity;BMP_temperature;BMP_pressure;BME280_temperature;BME280_humidity;BME280_pressure;Samples;Min_cycle;Max_cycle;Signal;HPM_P1;HPM_P2
2023/12/09 00:00:39;;;;;;;12.20;8.70;;;;;;;7.26;68.27;94603.69;5029594;28;20186;-45
2023/12/09 00:03:08;;;;;;;12.27;8.43;;;;;;;7.25;68.34;94603.78;5029837;28;20202;-44
2023/12/09 00:05:34;;;;;;;14.90;10.17;;;;;;;7.23;68.38;94606.47;5038404;28;20218;-46
2023/12/09 00:08:01;;;;;;;14.33;9.37;;;;;;;7.13;68.37;94597.94;5049773;28;20622;-44
2023/12/09 00:10:28;;;;;;;14.47;10.10;;;;;;;7.20;68.43;94611.78;5048368;28;20206;-44
2023/12/09 00:12:55;;;;;;;13.67;10.13;;;;;;;7.20;68.57;94608.44;5049322;28;20238;-44
2023/12/09 00:15:22;;;;;;;12.83;9.60;;;;;;;7.19;68.56;94611.91;5047294;28;20179;-46
2023/12/09 00:17:48;;;;;;;11.80;9.17;;;;;;;7.18;68.44;94608.56;5029414;28;20227;-45
2023/12/09 00:20:16;;;;;;;14.93;9.57;;;;;;;7.19;68.50;94609.34;5029156;28;20200;-44
2023/12/09 00:22:43;;;;;;;12.60;9.57;;;;;;;7.03;68.48;94579.22;5029347;28;20188;-43
2023/12/09 00:25:10;;;;;;;13.80;9.47;;;;;;;7.21;68.58;94607.50;5029392;28;20249;-44
2023/12/09 00:27:37;;;;;;;13.10;10.17;;;;;;;7.21;68.59;94600.69;5029501;28;20187;-45
2023/12/09 00:30:05;;;;;;;13.53;10.10;;;;;;;7.22;68.46;94591.34;5029430;28;20281;-44
2023/12/09 00:32:31;;;;;;;15.07;9.70;;;;;;;7.23;68.53;94591.19;5029084;28;20246;-44
2023/12/09 00:34:59;;;;;;;14.10;9.77;;;;;;;7.22;68.59;94594.69;5029260;28;20195;-45
2023/12/09 00:37:27;;;;;;;14.10;10.13;;;;;;;7.26;68.55;94590.97;5029114;28;20234;-45
2023/12/09 00:39:54;;;;;;;13.83;9.53;;;;;;;7.25;68.71;94599.53;5034448;28;20187;-45
2023/12/09 00:42:20;;;;;;;12.67;9.00;;;;;;;7.25;68.53;94606.31;5049002;28;20679;-45
2023/12/09 00:44:47;;;;;;;11.73;9.43;;;;;;;7.26;68.62;94593.50;5048880;28;20641;-45
2023/12/09 00:47:14;;;;;;;12.63;10.23;;;;;;;7.27;68.69;94601.94;5048763;28;20203;-43
2023/12/09 00:49:41;;;;;;;15.93;11.03;;;;;;;7.27;68.54;94597.66;5048823;28;20364;-45
2023/12/09 00:52:07;;;;;;;12.90;9.87;;;;;;;7.12;68.48;94577.69;5048957;28;20191;-48
2023/12/09 00:54:35;;;;;;;18.03;10.53;;;;;;;7.28;68.74;94601.00;5049418;28;20264;-46
2023/12/09 00:57:02;;;;;;;14.07;9.53;;;;;;;7.27;68.75;94601.94;5052434;28;20248;-44
2023/12/09 00:59:29;;;;;;;13.03;9.73;;;;;;;7.26;68.70;94601.13;5053000;28;20215;-44
2023/12/09 01:01:56;;;;;;;13.23;10.07;;;;;;;7.26;68.77;94598.59;5047476;28;20596;-44
2023/12/09 01:04:23;;;;;;;12.20;9.07;;;;;;;7.28;68.73;94601.00;5033021;28;20263;-45
2023/12/09 01:06:48;;;;;;;13.03;9.40;;;;;;;7.28;68.88;94604.34;5052483;28;20583;-45
2023/12/09 01:09:15;;;;;;;13.20;10.13;;;;;;;7.27;68.69;94602.75;5051567;28;20223;-45
2023/12/09 01:11:43;;;;;;;14.27;10.20;;;;;;;7.32;68.87;94604.13;5052310;28;20191;-46
2023/12/09 01:14:10;;;;;;;12.43;9.53;;;;;;;7.33;68.70;94609.09;5051918;28;20191;-45
2023/12/09 01:16:37;;;;;;;12.87;9.43;;;;;;;7.35;68.76;94609.78;5052373;28;20296;-46
2023/12/09 01:19:04;;;;;;;13.00;9.40;;;;;;;7.24;68.74;94590.25;5049702;28;20231;-45
2023/12/09 01:21:31;;;;;;;14.13;9.80;;;;;;;7.39;68.61;94611.16;5050437;28;20179;-45
2023/12/09 01:23:57;;;;;;;14.87;9.30;;;;;;;7.42;68.88;94615.19;5050204;28;20252;-45
2023/12/09 01:26:24;;;;;;;13.17;10.13;;;;;;;7.44;68.81;94613.34;5052071;28;20195;-44
2023/12/09 01:28:52;;;;;;;11.67;8.97;;;;;;;7.44;68.43;94605.72;5051531;28;20191;-44
2023/12/09 01:31:19;;;;;;;13.23;8.73;;;;;;;7.48;68.60;94612.97;5051941;28;20241;-46
2023/12/09 01:33:46;;;;;;;11.03;8.80;;;;;;;7.50;68.67;94610.31;5051758;28;20198;-45
2023/12/09 01:36:12;;;;;;;13.50;8.60;;;;;;;7.51;68.57;94612.75;5036653;28;20201;-46
2023/12/09 01:38:39;;;;;;;11.10;8.87;;;;;;;7.50;68.57;94606.03;5032021;28;20195;-45
2023/12/09 01:41:06;;;;;;;11.03;8.77;;;;;;;7.52;68.53;94603.38;5031831;28;20199;-47
2023/12/09 01:43:34;;;;;;;13.17;8.97;;;;;;;7.51;68.65;94594.09;5045719;28;20194;-46
2023/12/09 01:46:06;;;;;;;11.00;9.17;;;;;;;7.57;68.48;94606.34;5051738;28;20191;-48
2023/12/09 01:48:34;;;;;;;12.03;8.83;;;;;;;7.58;68.42;94604.63;5051518;28;20191;-45
2023/12/09 01:51:01;;;;;;;11.17;8.43;;;;;;;7.31;68.24;94565.16;5051231;28;20234;-47
2023/12/09 01:53:29;;;;;;;10.03;8.20;;;;;;;7.59;68.35;94598.59;5051607;28;20195;-44
2023/12/09 01:55:57;;;;;;;12.40;8.83;;;;;;;7.56;68.23;94594.56;5051374;28;20269;-45
2023/12/09 01:58:24;;;;;;;10.80;8.57;;;;;;;7.59;68.34;94603.69;5052018;28;20202;-45
2023/12/09 02:00:51;;;;;;;10.47;7.90;;;;;;;7.58;68.24;94599.53;5051484;28;20199;-44
2023/12/09 02:03:19;;;;;;;9.83;8.50;;;;;;;7.56;68.25;94594.56;5051388;28;20710;-45
2023/12/09 02:05:46;;;;;;;11.90;9.13;;;;;;;7.54;68.27;94592.13;5051086;28;20222;-45
2023/12/09 02:08:13;;;;;;;9.70;7.30;;;;;;;7.52;68.38;94596.53;5051177;28;20191;-45
2023/12/09 02:10:40;;;;;;;11.53;8.20;;;;;;;7.51;68.18;94586.47;5051208;28;20230;-45
2023/12/09 02:13:17;;;;;;;11.60;9.17;;;;;;;7.47;68.34;94585.94;5051647;28;20187;-45
2023/12/09 02:15:50;;;;;;;9.90;7.33;;;;;;;7.44;68.33;94591.25;5050997;28;20187;-45
2023/12/09 02:18:20;;;;;;;11.10;8.70;;;;;;;7.41;68.25;94590.69;5050849;28;20580;-46
2023/12/09 02:20:47;;;;;;;11.03;8.00;;;;;;;7.37;68.30;94591.84;5050783;28;20179;-45
2023/12/09 02:23:15;;;;;;;11.30;8.27;;;;;;;7.35;68.29;94586.09;5051169;28;20195;-45
2023/12/09 02:25:42;;;;;;;11.63;7.93;;;;;;;7.31;68.28;94588.06;5050755;28;20244;-46
2023/12/09 02:28:14;;;;;;;10.73;8.03;;;;;;;7.29;68.31;94592.44;5050954;28;20257;-44
2023/12/09 02:30:49;;;;;;;10.03;7.47;;;;;;;7.26;68.31;94590.16;5050481;28;20696;-44
2023/12/09 02:33:19;;;;;;;10.10;8.63;;;;;;;7.22;68.41;94588.78;5050953;28;20198;-46
2023/12/09 02:35:50;;;;;;;10.57;8.27;;;;;;;7.19;68.61;94584.72;5050834;28;20214;-45
2023/12/09 02:38:19;;;;;;;13.50;8.37;;;;;;;7.05;68.54;94572.28;5051065;28;20675;-45
2023/12/09 02:40:47;;;;;;;9.53;7.50;;;;;;;6.96;68.41;94550.13;5051008;28;20268;-47
2023/12/09 02:43:15;;;;;;;10.43;8.33;;;;;;;7.11;68.54;94581.19;5050796;28;20257;-44
2023/12/09 02:45:45;;;;;;;10.27;7.67;;;;;;;7.09;68.44;94578.75;5050868;28;20191;-45
2023/12/09 02:48:12;;;;;;;9.73;7.57;;;;;;;7.04;68.60;94579.13;5051238;28;20187;-44
2023/12/09 02:50:39;;;;;;;10.60;7.67;;;;;;;6.99;68.62;94565.97;5051262;28;20226;-45
2023/12/09 02:53:05;;;;;;;9.50;7.67;;;;;;;6.99;68.56;94573.59;5050669;28;20206;-44
2023/12/09 02:55:34;;;;;;;10.03;7.57;;;;;;;6.97;68.45;94577.16;5050501;28;20190;-45
2023/12/09 02:58:00;;;;;;;9.37;7.60;;;;;;;6.94;68.60;94573.13;5044820;28;20191;-44
2023/12/09 03:00:27;;;;;;;10.40;7.43;;;;;;;6.90;68.65;94571.72;5032706;28;20192;-47
2023/12/09 03:02:54;;;;;;;11.20;7.87;;;;;;;6.90;68.65;94579.34;5034372;28;20271;-44
2023/12/09 03:05:20;;;;;;;9.90;7.53;;;;;;;6.87;68.59;94574.53;5047891;28;20191;-46
2023/12/09 03:07:47;;;;;;;10.17;7.70;;;;;;;6.85;68.75;94573.81;5052448;28;20261;-51
2023/12/09 03:10:14;;;;;;;10.43;7.47;;;;;;;6.67;68.71;94549.84;5054643;28;20282;-45
2023/12/09 03:12:42;;;;;;;12.80;8.30;;;;;;;6.81;68.64;94566.56;5045971;28;20187;-46
2023/12/09 03:15:10;;;;;;;10.33;7.83;;;;;;;6.78;68.76;94572.69;5031582;28;20696;-44
2023/12/09 03:17:37;;;;;;;12.57;7.77;;;;;;;6.76;68.61;94574.53;5029863;28;20679;-44
2023/12/09 03:20:08;;;;;;;10.50;7.33;;;;;;;6.74;68.75;94574.66;5030633;28;20218;-44
2023/12/09 03:22:35;;;;;;;10.30;7.87;;;;;;;6.73;68.79;94582.38;5030349;28;20534;-44
2023/12/09 03:25:01;;;;;;;12.67;7.53;;;;;;;6.70;68.84;94587.72;5031720;28;20238;-49
2023/12/09 03:27:28;;;;;;;9.27;7.47;;;;;;;6.68;68.89;94582.75;5030832;28;20570;-45
2023/12/09 03:29:56;;;;;;;10.40;7.47;;;;;;;6.65;68.88;94588.06;5029888;28;20706;-44
2023/12/09 03:32:23;;;;;;;11.87;8.20;;;;;;;6.64;68.79;94586.44;5031015;28;20202;-44
2023/12/09 03:34:50;;;;;;;9.63;7.63;;;;;;;6.62;68.88;94590.03;5036623;28;20191;-46
2023/12/09 03:37:17;;;;;;;8.93;7.10;;;;;;;6.60;68.90;94590.13;5039541;28;20226;-45
2023/12/09 03:39:43;;;;;;;8.23;6.87;;;;;;;6.59;68.84;94587.72;5035963;28;20206;-44
2023/12/09 03:42:10;;;;;;;8.00;6.60;;;;;;;6.58;68.87;94581.03;5035312;28;20188;-44
2023/12/09 03:44:37;;;;;;;9.53;7.57;;;;;;;6.58;68.92;94583.56;5031052;28;20202;-44
2023/12/09 03:47:05;;;;;;;8.87;6.63;;;;;;;6.57;69.01;94581.97;5030115;28;20271;-45
2023/12/09 03:49:32;;;;;;;8.97;6.60;;;;;;;6.58;69.11;94586.91;5029595;28;20576;-44
2023/12/09 03:51:59;;;;;;;8.20;6.30;;;;;;;6.56;68.99;94587.94;5029835;28;20195;-46
2023/12/09 03:54:26;;;;;;;8.97;6.83;;;;;;;6.51;69.04;94584.00;5029763;28;20191;-44
2023/12/09 03:56:54;;;;;;;10.07;7.10;;;;;;;6.55;69.08;94587.13;5029905;28;20184;-44
2023/12/09 03:59:21;;;;;;;9.10;7.13;;;;;;;6.55;69.17;94597.28;5029269;28;20192;-46
2023/12/09 04:01:48;;;;;;;9.83;7.37;;;;;;;6.55;69.16;94594.75;5029840;28;20215;-44
2023/12/09 04:04:17;;;;;;;9.20;7.30;;;;;;;6.54;69.33;94598.22;5029543;28;20187;-44
2023/12/09 04:06:44;;;;;;;9.30;7.33;;;;;;;6.53;68.92;94597.41;5029608;28;20194;-46
2023/12/09 04:09:11;;;;;;;8.47;6.33;;;;;;;6.50;69.25;94589.22;5029493;28;20236;-45
2023/12/09 04:11:38;;;;;;;10.03;7.00;;;;;;;6.46;68.91;94593.72;5029507;28;20643;-47
2023/12/09 04:14:05;;;;;;;8.47;6.60;;;;;;;6.49;69.26;94596.03;5029496;28;20203;-45
2023/12/09 04:16:32;;;;;;;7.50;6.60;;;;;;;6.49;69.20;94610.47;5029108;28;20215;-45
2023/12/09 04:18:58;;;;;;;9.73;6.93;;;;;;;6.45;69.22;94606.53;5029276;28;20231;-46
2023/12/09 04:21:27;;;;;;;10.73;7.63;;;;;;;6.45;69.18;94614.97;5029722;28;20195;-44
2023/12/09 04:23:53;;;;;;;8.63;6.80;;;;;;;6.45;69.36;94609.88;5029461;28;20645;-47
2023/12/09 04:26:20;;;;;;;10.93;7.50;;;;;;;6.28;69.32;94582.41;5029095;28;20187;-45
2023/12/09 04:28:47;;;;;;;9.80;7.23;;;;;;;6.44;69.26;94607.47;5029507;28;20591;-46
2023/12/09 04:31:14;;;;;;;10.97;7.40;;;;;;;6.43;69.38;94608.38;5032907;28;20263;-44
2023/12/09 04:33:44;;;;;;;8.87;7.07;;;;;;;6.42;69.26;94612.66;5033501;28;20261;-45
2023/12/09 04:36:11;;;;;;;8.70;7.07;;;;;;;6.42;69.28;94602.50;5033355;28;20187;-47
2023/12/09 04:38:39;;;;;;;7.20;6.27;;;;;;;6.43;69.28;94608.38;5033099;28;20187;-46
2023/12/09 04:41:06;;;;;;;9.77;6.83;;;;;;;6.43;69.21;94603.28;5032967;28;20275;-46
2023/12/09 04:43:33;;;;;;;8.43;6.73;;;;;;;6.42;69.34;94610.09;5032760;28;20199;-46
2023/12/09 04:46:00;;;;;;;9.23;7.03;;;;;;;6.43;69.38;94614.28;5033235;28;20196;-44
2023/12/09 04:48:26;;;;;;;9.30;7.07;;;;;;;6.38;69.25;94607.91;5032644;28;20203;-46
2023/12/09 04:50:53;;;;;;;7.70;6.20;;;;;;;6.45;69.36;94616.69;5032875;28;20231;-44
2023/12/09 04:53:20;;;;;;;7.23;6.40;;;;;;;6.45;69.27;94616.69;5032874;28;20211;-48
2023/12/09 04:55:48;;;;;;;9.20;7.07;;;;;;;6.50;69.21;94617.16;5033020;28;20267;-46
2023/12/09 04:58:15;;;;;;;7.73;6.60;;;;;;;6.51;69.17;94629.75;5032817;28;20210;-44
2023/12/09 05:00:42;;;;;;;7.90;6.57;;;;;;;6.54;69.12;94629.53;5032809;28;20262;-45
2023/12/09 05:03:09;;;;;;;8.47;6.70;;;;;;;6.58;69.26;94632.66;5032350;28;20194;-50
2023/12/09 05:05:35;;;;;;;8.27;6.80;;;;;;;6.62;69.09;94630.69;5032614;28;20214;-43
2023/12/09 05:08:03;;;;;;;7.93;6.47;;;;;;;6.64;69.07;94631.38;5032317;28;20188;-44
2023/12/09 05:10:30;;;;;;;8.00;6.37;;;;;;;6.68;69.23;94631.00;5032360;28;20727;-46
2023/12/09 05:12:58;;;;;;;9.43;5.97;;;;;;;6.71;69.07;94633.34;5032514;28;20253;-45
2023/12/09 05:15:25;;;;;;;8.47;6.80;;;;;;;6.74;69.00;94635.66;5032673;28;20188;-45
2023/12/09 05:17:51;;;;;;;7.43;6.40;;;;;;;6.75;69.06;94628.84;5032655;28;20220;-45
2023/12/09 05:20:18;;;;;;;7.17;6.00;;;;;;;6.82;69.01;94639.31;5032401;28;20200;-47
2023/12/09 05:22:46;;;;;;;8.20;6.30;;;;;;;6.86;68.98;94643.25;5032761;28;20180;-44
2023/12/09 05:25:14;;;;;;;6.37;5.77;;;;;;;6.89;68.95;94655.75;5032725;28;20267;-44
2023/12/09 05:27:41;;;;;;;9.77;6.93;;;;;;;6.92;68.95;94651.25;5032451;28;20246;-45
2023/12/09 05:30:10;;;;;;;9.10;6.67;;;;;;;6.95;69.07;94648.47;5032001;28;20196;-44
2023/12/09 05:32:37;;;;;;;7.20;6.07;;;;;;;6.99;68.84;94654.09;5012907;28;20230;-46
2023/12/09 05:35:05;;;;;;;6.97;6.17;;;;;;;7.03;69.06;94660.56;5029362;28;20274;-44
2023/12/09 05:37:31;;;;;;;8.07;6.23;;;;;;;7.07;68.89;94663.69;5040535;28;20633;-45
2023/12/09 05:39:58;;;;;;;6.90;6.03;;;;;;;7.10;68.99;94659.19;5051700;28;20509;-45
2023/12/09 05:42:25;;;;;;;8.20;6.13;;;;;;;7.13;68.70;94661.50;5052093;28;20214;-44
2023/12/09 05:44:52;;;;;;;8.93;6.43;;;;;;;7.15;68.86;94666.47;5051818;28;20224;-44
2023/12/09 05:47:20;;;;;;;7.80;6.10;;;;;;;7.20;68.92;94664.38;5051815;28;20591;-45
2023/12/09 05:49:47;;;;;;;9.07;5.80;;;;;;;7.21;68.67;94659.19;5034548;28;20203;-46
2023/12/09 05:52:13;;;;;;;8.27;6.07;;;;;;;7.27;68.60;94671.41;5031671;28;20227;-45
2023/12/09 05:54:40;;;;;;;7.33;6.40;;;;;;;7.24;68.74;94666.56;5031841;28;20207;-45
2023/12/09 05:57:07;;;;;;;6.77;5.90;;;;;;;7.33;68.59;94672.69;5031699;28;20199;-44
2023/12/09 05:59:34;;;;;;;7.23;5.83;;;;;;;7.36;68.44;94669.09;5032027;28;20187;-44
2023/12/09 06:02:01;;;;;;;8.00;6.50;;;;;;;7.40;68.54;94662.84;5031299;28;20219;-44
2023/12/09 06:04:29;;;;;;;7.27;6.40;;;;;;;7.39;68.37;94661.25;5031622;28;20200;-45
2023/12/09 06:06:55;;;;;;;6.53;5.90;;;;;;;7.44;68.50;94670.13;5031168;28;20202;-44
2023/12/09 06:09:22;;;;;;;7.83;6.20;;;;;;;7.47;68.28;94672.44;5031623;28;20195;-44
2023/12/09 06:11:49;;;;;;;8.87;6.87;;;;;;;7.47;68.35;94667.34;5036718;28;20214;-44
2023/12/09 06:14:17;;;;;;;7.77;6.60;;;;;;;7.53;68.22;94682.13;5050373;28;20268;-46
2023/12/09 06:16:44;;;;;;;7.80;6.60;;;;;;;7.52;68.14;94677.97;5035483;28;20183;-42
2023/12/09 06:19:10;;;;;;;8.30;6.13;;;;;;;7.59;68.14;94678.28;5051132;28;20227;-46
2023/12/09 06:21:38;;;;;;;7.17;6.23;;;;;;;7.63;67.96;94673.75;5050955;28;20190;-43
2023/12/09 06:24:06;;;;;;;7.77;6.20;;;;;;;7.67;67.87;94680.25;5051267;28;20187;-46
2023/12/09 06:26:33;;;;;;;8.07;6.57;;;;;;;7.69;67.77;94679.19;5050967;28;20198;-46
2023/12/09 06:28:59;;;;;;;8.23;6.70;;;;;;;7.73;67.73;94674.69;5050876;28;20554;-43
2023/12/09 06:31:26;;;;;;;8.03;6.63;;;;;;;7.78;67.85;94677.66;5047529;28;20295;-45
2023/12/09 06:33:53;;;;;;;7.80;6.03;;;;;;;7.83;67.72;94680.66;5043473;28;20213;-43
2023/12/09 06:36:19;;;;;;;8.83;6.70;;;;;;;7.85;67.54;94681.31;5030943;28;20703;-44
2023/12/09 06:38:48;;;;;;;8.63;6.80;;;;;;;7.86;67.71;94667.69;5030906;28;20199;-45
2023/12/09 06:41:15;;;;;;;10.53;7.07;;;;;;;7.93;67.31;94683.28;5031716;28;20190;-45
2023/12/09 06:43:42;;;;;;;8.17;6.50;;;;;;;7.97;67.44;94682.91;5047220;28;20252;-48
2023/12/09 06:46:08;;;;;;;7.97;6.63;;;;;;;7.99;67.24;94680.25;5050905;28;20198;-45
2023/12/09 06:48:37;;;;;;;9.10;6.37;;;;;;;8.07;67.46;94687.25;5050332;28;20179;-46
2023/12/09 06:51:06;;;;;;;8.33;7.13;;;;;;;8.11;67.29;94689.44;5050765;28;20757;-44
2023/12/09 06:53:33;;;;;;;8.97;5.97;;;;;;;8.11;67.07;94681.78;5037758;28;20180;-45
2023/12/09 06:56:01;;;;;;;6.83;6.13;;;;;;;8.17;66.98;94688.97;5030923;28;20196;-45
2023/12/09 06:58:28;;;;;;;7.90;6.47;;;;;;;8.22;67.04;94698.78;5030532;28;20642;-48
2023/12/09 07:00:55;;;;;;;7.67;6.60;;;;;;;8.23;66.86;94695.28;5038449;28;20559;-45
2023/12/09 07:03:22;;;;;;;9.10;6.70;;;;;;;8.29;66.66;94698.16;5050689;28;20573;-45
2023/12/09 07:05:48;;;;;;;7.93;7.13;;;;;;;8.36;66.78;94700.22;5051226;28;20195;-47
2023/12/09 07:08:15;;;;;;;8.80;6.97;;;;;;;8.38;66.66;94701.75;5051243;28;20648;-49
2023/12/09 07:10:44;;;;;;;7.77;6.87;;;;;;;8.35;66.52;94696.06;5050416;28;20648;-44
2023/12/09 07:13:12;;;;;;;8.13;6.53;;;;;;;8.38;66.51;94689.00;5050652;28;20218;-46
2023/12/09 07:15:40;;;;;;;9.13;7.00;;;;;;;8.54;66.42;94712.28;5047829;28;20182;-47
2023/12/09 07:18:06;;;;;;;10.30;7.30;;;;;;;8.59;66.36;94711.09;5030265;28;20231;-47
2023/12/09 07:20:33;;;;;;;7.90;6.53;;;;;;;8.63;66.10;94713.28;5034424;28;20198;-47
2023/12/09 07:23:00;;;;;;;9.87;7.30;;;;;;;8.68;66.13;94712.91;5050041;28;20187;-46
2023/12/09 07:25:28;;;;;;;10.03;6.90;;;;;;;8.73;66.05;94708.25;5049496;28;20191;-47
2023/12/09 07:27:55;;;;;;;8.80;6.20;;;;;;;6.97;65.71;94427.19;5050327;28;20195;-47
2023/12/09 07:30:23;;;;;;;8.10;6.67;;;;;;;8.84;65.85;94713.25;5049437;28;20190;-46
2023/12/09 07:32:50;;;;;;;6.67;5.67;;;;;;;8.90;65.65;94717.06;5050110;28;20424;-49
2023/12/09 07:35:18;;;;;;;7.70;5.77;;;;;;;8.95;65.48;94717.50;5045321;28;20214;-45
2023/12/09 07:37:44;;;;;;;7.93;6.60;;;;;;;8.87;65.38;94704.56;5042456;28;20213;-45
2023/12/09 07:40:12;;;;;;;7.80;6.13;;;;;;;9.03;65.23;94733.78;5050218;28;20202;-46
2023/12/09 07:42:39;;;;;;;9.70;6.80;;;;;;;9.07;65.15;94734.34;5050362;28;20564;-48
2023/12/09 07:45:08;;;;;;;19.53;5.00;;;;;;;9.20;80.54;94711.97;5050807;28;20199;-48
2023/12/09 07:47:36;;;;;;;13.40;6.13;;;;;;;10.07;100.00;94724.09;5041705;28;20227;-46
2023/12/09 07:50:03;;;;;;;11.17;5.30;;;;;;;10.75;98.41;94731.75;5036571;28;20190;-47
2023/12/09 07:52:29;;;;;;;7.37;5.60;;;;;;;11.05;94.10;94733.28;5051611;28;20210;-49
2023/12/09 07:54:56;;;;;;;10.07;5.57;;;;;;;11.13;91.26;94728.28;5056614;28;20666;-46
2023/12/09 07:57:23;;;;;;;6.50;5.53;;;;;;;11.19;88.72;94732.84;5058229;28;20656;-47
2023/12/09 07:59:50;;;;;;;7.70;6.17;;;;;;;11.19;86.56;94727.72;5051445;28;20660;-48
2023/12/09 08:02:17;;;;;;;11.63;6.73;;;;;;;11.19;84.27;94737.97;5038847;28;20187;-48
2023/12/09 08:04:45;;;;;;;7.53;6.40;;;;;;;11.05;82.27;94725.59;5046425;28;20191;-47
2023/12/09 08:07:12;;;;;;;10.10;6.20;;;;;;;11.14;80.39;94745.25;5029589;28;20191;-46
2023/12/09 08:09:39;;;;;;;6.67;5.70;;;;;;;11.12;79.04;94743.78;5030195;28;20215;-48
2023/12/09 08:12:07;;;;;;;7.23;6.20;;;;;;;11.04;77.70;94744.47;5029606;28;20223;-48
2023/12/09 08:14:34;;;;;;;11.77;6.83;;;;;;;11.07;76.79;94751.88;5029920;28;20199;-47
2023/12/09 08:17:00;;;;;;;7.33;6.30;;;;;;;11.05;75.36;94767.38;5029541;28;20199;-44
2023/12/09 08:19:27;;;;;;;8.07;6.23;;;;;;;10.98;74.60;94745.84;5038534;28;20222;-45
2023/12/09 08:21:55;;;;;;;8.87;6.20;;;;;;;11.02;73.77;94757.41;5031175;28;20196;-45
2023/12/09 08:24:22;;;;;;;7.77;6.43;;;;;;;11.02;72.97;94752.28;5029264;28;20199;-45
2023/12/09 08:26:49;;;;;;;9.27;6.20;;;;;;;11.02;72.20;94754.06;5038686;28;20625;-47
2023/12/09 08:29:16;;;;;;;7.00;6.30;;;;;;;11.03;71.69;94750.53;5044334;28;20188;-44
2023/12/09 08:31:46;;;;;;;9.50;7.03;;;;;;;11.05;71.14;94756.31;5041495;28;20219;-45
2023/12/09 08:34:13;;;;;;;8.90;7.10;;;;;;;11.05;70.57;94756.31;5048736;28;20241;-46
2023/12/09 08:36:40;;;;;;;7.80;6.83;;;;;;;11.05;69.80;94759.69;5049177;28;20285;-49
2023/12/09 08:39:08;;;;;;;9.47;6.87;;;;;;;11.07;69.69;94759.56;5032340;28;20544;-47
2023/12/09 08:41:35;;;;;;;9.80;7.10;;;;;;;11.09;69.21;94754.28;5029185;28;20239;-44
2023/12/09 08:44:03;;;;;;;11.13;7.10;;;;;;;11.09;68.90;94751.72;5029076;28;20192;-44
2023/12/09 08:46:30;;;;;;;9.43;6.60;;;;;;;10.66;68.34;94682.22;5029422;28;20220;-44
2023/12/09 08:48:57;;;;;;;7.93;6.17;;;;;;;11.22;67.81;94755.59;5028305;28;20191;-43
2023/12/09 08:51:24;;;;;;;7.87;6.17;;;;;;;11.44;69.01;94753.63;5028881;28;20223;-45
2023/12/09 08:53:51;;;;;;;12.17;6.20;;;;;;;11.66;73.80;94743.03;5029120;28;20211;-44
2023/12/09 08:56:19;;;;;;;12.83;6.13;;;;;;;12.01;77.25;94749.19;5029919;28;20191;-43
2023/12/09 08:58:46;;;;;;;8.23;6.27;;;;;;;12.23;76.67;94746.19;5029033;28;20201;-45
2023/12/09 09:01:13;;;;;;;9.47;6.53;;;;;;;12.32;74.94;94749.63;5028368;28;20645;-44
2023/12/09 09:03:39;;;;;;;9.07;6.83;;;;;;;12.36;73.04;94747.59;5047482;28;20203;-44
2023/12/09 09:06:06;;;;;;;7.13;6.00;;;;;;;12.34;71.30;94737.47;5038922;28;20203;-45
2023/12/09 09:08:33;;;;;;;12.40;7.97;;;;;;;12.33;70.01;94742.75;5028792;28;20275;-46
2023/12/09 09:11:00;;;;;;;10.07;7.40;;;;;;;12.35;69.06;94749.34;5032868;28;20179;-45
2023/12/09 09:13:30;;;;;;;15.20;6.93;;;;;;;12.43;68.35;94748.59;5048365;28;20210;-45
2023/12/09 09:15:56;;;;;;;8.17;6.90;;;;;;;12.52;68.36;94751.09;5050348;28;20249;-47
2023/12/09 09:18:23;;;;;;;10.93;6.50;;;;;;;12.57;68.53;94745.53;5050797;28;20234;-44
2023/12/09 09:20:50;;;;;;;11.67;7.10;;;;;;;12.58;68.81;94738.63;5044230;28;20252;-45
2023/12/09 09:23:17;;;;;;;9.13;6.43;;;;;;;12.57;69.00;94730.13;5049578;28;20602;-45
2023/12/09 09:25:44;;;;;;;8.83;6.00;;;;;;;12.54;68.95;94733.78;5042012;28;20179;-46
2023/12/09 09:28:10;;;;;;;11.33;6.23;;;;;;;12.51;68.72;94734.06;5049956;28;20198;-45
2023/12/09 09:30:39;;;;;;;6.73;5.67;;;;;;;12.48;68.37;94729.25;5052334;28;20183;-44
2023/12/09 09:33:06;;;;;;;6.87;5.77;;;;;;;12.39;68.18;94712.19;5052286;28;20207;-44
2023/12/09 09:35:33;;;;;;;6.27;5.43;;;;;;;12.40;67.74;94716.38;5051700;28;20636;-45
2023/12/09 09:38:00;;;;;;;7.13;5.77;;;;;;;12.38;67.38;94718.25;5052138;28;20215;-45
2023/12/09 09:40:27;;;;;;;8.47;5.67;;;;;;;12.35;67.33;94710.06;5051990;28;20266;-45
2023/12/09 09:42:57;;;;;;;8.00;6.70;;;;;;;12.31;66.80;94704.44;5052299;28;20191;-45
2023/12/09 09:45:25;;;;;;;7.80;6.30;;;;;;;12.28;66.59;94708.09;5052162;28;20197;-45
2023/12/09 09:47:55;;;;;;;6.80;6.07;;;;;;;12.22;66.40;94703.56;5051579;28;20593;-45
2023/12/09 09:50:23;;;;;;;9.70;6.07;;;;;;;12.22;66.06;94705.31;5051557;28;20194;-44
2023/12/09 09:52:50;;;;;;;7.37;5.97;;;;;;;12.20;65.80;94699.53;5051582;28;20663;-47
2023/12/09 09:55:19;;;;;;;7.60;6.17;;;;;;;12.19;65.40;94706.41;5052040;28;20245;-45
2023/12/09 09:57:46;;;;;;;9.43;5.70;;;;;;;12.19;65.36;94708.19;5051460;28;20191;-44
2023/12/09 10:00:14;;;;;;;7.37;5.63;;;;;;;12.19;64.97;94713.31;5052017;28;20187;-45
2023/12/09 10:02:43;;;;;;;7.37;5.30;;;;;;;12.17;64.73;94710.88;5051643;28;20183;-45
2023/12/09 10:05:12;;;;;;;7.13;5.50;;;;;;;12.16;64.64;94711.03;5052060;28;20543;-46
2023/12/09 10:07:39;;;;;;;8.60;5.77;;;;;;;12.05;64.39;94697.50;5051515;28;20714;-45
2023/12/09 10:10:07;;;;;;;8.03;5.80;;;;;;;12.13;64.14;94724.13;5051558;28;20199;-44
2023/12/09 10:12:34;;;;;;;8.60;5.93;;;;;;;12.12;64.09;94719.97;5051584;28;20318;-45
2023/12/09 10:15:02;;;;;;;8.63;5.33;;;;;;;11.88;63.71;94666.75;5051541;28;20191;-44
2023/12/09 10:17:30;;;;;;;7.57;5.53;;;;;;;11.94;63.75;94684.88;5051367;28;20241;-43
2023/12/09 10:19:57;;;;;;;6.83;5.43;;;;;;;12.09;63.51;94707.44;5051394;28;20187;-45
2023/12/09 10:22:26;;;;;;;6.23;5.30;;;;;;;12.00;63.34;94691.16;5051498;28;20195;-45
2023/12/09 10:24:54;;;;;;;6.83;5.27;;;;;;;12.12;63.25;94707.16;5051175;28;20603;-45
2023/12/09 10:27:22;;;;;;;7.20;5.53;;;;;;;12.09;63.13;94700.56;5051565;28;20617;-45
2023/12/09 10:29:50;;;;;;;5.70;5.13;;;;;;;12.11;62.90;94706.34;5051044;28;20572;-46
2023/12/09 10:32:17;;;;;;;8.03;6.10;;;;;;;12.11;62.97;94702.97;5051026;28;20207;-45
2023/12/09 10:34:44;;;;;;;6.60;5.57;;;;;;;11.99;62.58;94679.31;5051259;28;20191;-45
2023/12/09 10:37:12;;;;;;;7.23;5.53;;;;;;;12.12;62.57;94694.31;5051329;28;20202;-44
2023/12/09 10:39:43;;;;;;;7.40;5.77;;;;;;;12.09;62.52;94687.75;5050971;28;20245;-43
2023/12/09 10:42:10;;;;;;;7.63;5.23;;;;;;;12.11;62.40;94688.41;5051520;28;20210;-44
2023/12/09 10:44:36;;;;;;;6.97;5.70;;;;;;;12.10;62.24;94688.56;5050754;28;20274;-44
2023/12/09 10:47:04;;;;;;;7.40;5.33;;;;;;;12.07;62.25;94684.50;5051087;28;20199;-44
2023/12/09 10:49:32;;;;;;;5.40;4.90;;;;;;;12.07;62.22;94681.94;5052182;28;20195;-44
2023/12/09 10:51:58;;;;;;;12.63;6.13;;;;;;;12.03;61.95;94678.06;5051488;28;20361;-44
2023/12/09 10:54:25;;;;;;;5.80;5.20;;;;;;;12.02;61.81;94684.97;5051764;28;20236;-44
2023/12/09 10:56:53;;;;;;;6.60;5.50;;;;;;;12.00;61.65;94680.91;5052112;28;20256;-44
2023/12/09 10:59:21;;;;;;;6.20;4.33;;;;;;;11.97;61.94;94686.34;5053509;28;20630;-46
2023/12/09 11:01:48;;;;;;;7.30;5.00;;;;;;;11.91;61.73;94681.78;5054197;28;20286;-45
2023/12/09 11:04:15;;;;;;;5.57;5.03;;;;;;;11.91;61.50;94686.94;5053938;28;20199;-45
2023/12/09 11:06:45;;;;;;;6.37;5.10;;;;;;;11.84;61.66;94671.34;5056451;28;20199;-50
2023/12/09 11:09:14;;;;;;;6.33;5.40;;;;;;;11.84;61.39;94679.03;5056002;28;20180;-44
2023/12/09 11:11:42;;;;;;;7.13;5.77;;;;;;;11.80;61.31;94672.56;5054111;28;20191;-44
2023/12/09 11:14:11;;;;;;;5.67;4.87;;;;;;;11.76;61.28;94682.28;5051186;28;20210;-45
2023/12/09 11:16:42;;;;;;;6.97;4.63;;;;;;;11.60;61.54;94650.56;5050691;28;20328;-45
2023/12/09 11:19:14;;;;;;;6.27;5.00;;;;;;;11.67;61.19;94670.34;5050567;28;20317;-45
2023/12/09 11:21:44;;;;;;;5.33;4.27;;;;;;;11.60;61.07;94663.38;5050101;28;20199;-45
2023/12/09 11:24:12;;;;;;;4.63;4.13;;;;;;;11.41;61.16;94631.81;5050171;28;20279;-44
2023/12/09 11:26:41;;;;;;;5.87;4.97;;;;;;;11.54;61.19;94668.13;5049969;28;20250;-45
2023/12/09 11:29:09;;;;;;;5.13;4.50;;;;;;;11.51;61.20;94665.03;5050288;28;20191;-45
2023/12/09 11:31:39;;;;;;;5.80;5.03;;;;;;;11.47;60.94;94664.53;5049902;28;20674;-46
2023/12/09 11:34:07;;;;;;;4.97;4.47;;;;;;;11.44;60.94;94664.00;5050403;28;20214;-45
2023/12/09 11:36:36;;;;;;;5.57;4.90;;;;;;;11.41;61.07;94667.66;5050113;28;20203;-44